createdAt,value
2019-02-17T00:01:45.899Z,130.80
2019-02-17T00:04:17.720Z,137.80
2019-02-17T00:06:49.938Z,139.20
2019-02-17T00:09:21.689Z,118.80
2019-02-17T00:11:53.328Z,130.40
2019-02-17T00:14:24.828Z,119.20
2019-02-17T00:16:56.421Z,128.20
2019-02-17T00:19:27.749Z,120.20
2019-02-17T00:21:59.673Z,121.40
2019-02-17T00:24:31.127Z,116.60
2019-02-17T00:27:02.690Z,111.40
2019-02-17T00:29:34.439Z,101.80
2019-02-17T00:32:05.924Z,124.80
2019-02-17T00:34:37.796Z,132.00
2019-02-17T00:37:09.392Z,124.20
2019-02-17T00:39:41.126Z,143.20
2019-02-17T00:42:12.559Z,135.60
2019-02-17T00:44:43.902Z,141.00
2019-02-17T00:47:15.232Z,134.00
2019-02-17T00:49:46.704Z,119.20
2019-02-17T00:52:18.169Z,151.80
2019-02-17T00:54:49.544Z,135.80
2019-02-17T00:57:20.942Z,140.40
2019-02-17T00:59:52.827Z,137.20
2019-02-17T01:02:25.713Z,129.20
2019-02-17T01:04:57.140Z,132.00
2019-02-17T01:07:29.318Z,139.00
2019-02-17T01:10:00.634Z,128.40
2019-02-17T01:12:32.752Z,119.60
2019-02-17T01:15:04.381Z,129.20
2019-02-17T01:17:35.825Z,115.80
2019-02-17T01:20:07.707Z,119.00
2019-02-17T01:22:39.073Z,112.00
2019-02-17T01:25:10.835Z,127.40
2019-02-17T01:27:42.121Z,115.40
2019-02-17T01:30:15.766Z,120.20
2019-02-17T01:32:47.623Z,111.40
2019-02-17T01:35:19.260Z,136.60
2019-02-17T01:37:50.615Z,123.60
2019-02-17T01:40:23.613Z,125.20
2019-02-17T01:42:55.323Z,157.60
2019-02-17T01:45:27.053Z,125.20
2019-02-17T01:47:58.515Z,147.60
2019-02-17T01:50:30.117Z,131.80
2019-02-17T01:53:01.486Z,139.40
2019-02-17T01:55:32.892Z,166.20
2019-02-17T01:58:04.507Z,154.00
2019-02-17T02:00:36.010Z,161.80
2019-02-17T02:03:07.799Z,156.20
2019-02-17T02:05:39.576Z,156.40
2019-02-17T02:08:11.399Z,159.40
2019-02-17T02:10:42.762Z,172.20
2019-02-17T02:13:14.426Z,167.40
2019-02-17T02:15:45.732Z,149.60
2019-02-17T02:18:17.103Z,144.40
2019-02-17T02:20:48.741Z,165.00
2019-02-17T02:23:20.094Z,159.80
2019-02-17T02:25:51.317Z,160.40
2019-02-17T02:28:23.361Z,159.40
2019-02-17T02:30:54.333Z,172.40
2019-02-17T02:33:25.642Z,162.00
2019-02-17T02:35:56.629Z,163.00
2019-02-17T02:38:28.158Z,164.80
2019-02-17T02:40:59.622Z,165.80
2019-02-17T02:43:31.028Z,159.20
2019-02-17T02:46:02.439Z,147.60
2019-02-17T02:48:33.924Z,150.00
2019-02-17T02:51:05.496Z,161.20
2019-02-17T02:53:37.121Z,151.40
2019-02-17T02:56:08.704Z,162.00
2019-02-17T02:58:40.404Z,159.00
2019-02-17T03:01:12.094Z,127.20
2019-02-17T03:03:45.978Z,152.40
2019-02-17T03:06:51.192Z,149.40
2019-02-17T03:09:23.351Z,147.20
2019-02-17T03:11:54.735Z,146.40
2019-02-17T03:14:26.772Z,133.80
2019-02-17T03:17:00.512Z,123.00
2019-02-17T03:19:31.063Z,152.80
2019-02-17T03:22:02.306Z,150.60
2019-02-17T03:24:37.323Z,135.20
2019-02-17T03:27:08.971Z,136.80
2019-02-17T03:29:40.485Z,134.20
2019-02-17T03:32:12.141Z,136.00
2019-02-17T03:34:44.106Z,152.60
2019-02-17T03:37:15.622Z,141.60
2019-02-17T03:39:47.677Z,135.60
2019-02-17T03:42:19.118Z,143.40
2019-02-17T03:44:50.707Z,145.20
2019-02-17T03:47:22.286Z,146.60
2019-02-17T03:49:53.997Z,118.40
2019-02-17T03:52:25.166Z,129.00
2019-02-17T03:54:56.738Z,143.20
2019-02-17T03:57:28.308Z,133.20
2019-02-17T04:00:00.835Z,118.60
2019-02-17T04:02:32.467Z,126.00
2019-02-17T04:05:04.313Z,129.00
2019-02-17T04:07:35.711Z,134.80
2019-02-17T04:10:07.491Z,111.40
2019-02-17T04:12:38.774Z,114.20
2019-02-17T04:15:10.430Z,119.20
2019-02-17T04:17:42.306Z,105.60
2019-02-17T04:20:14.050Z,111.40
2019-02-17T04:22:45.664Z,118.60
2019-02-17T04:25:19.161Z,129.80
2019-02-17T04:27:53.233Z,122.60
2019-02-17T04:30:29.354Z,108.40
2019-02-17T04:32:58.187Z,112.20
2019-02-17T04:35:29.811Z,111.20
2019-02-17T04:38:01.334Z,104.00
2019-02-17T04:40:32.753Z,106.40
2019-02-17T04:43:04.145Z,109.20
2019-02-17T04:45:35.997Z,110.60
2019-02-17T04:48:07.266Z,111.20
2019-02-17T04:50:39.100Z,112.20
2019-02-17T04:53:10.515Z,108.60
2019-02-17T04:55:42.184Z,101.40
2019-02-17T04:58:13.518Z,103.60
2019-02-17T05:00:45.330Z,102.60
2019-02-17T05:03:16.877Z,112.60
2019-02-17T05:05:48.407Z,92.80
2019-02-17T05:08:19.654Z,102.40
2019-02-17T05:10:51.097Z,103.00
2019-02-17T05:13:22.259Z,93.80
2019-02-17T05:15:53.579Z,97.40
2019-02-17T05:18:25.170Z,88.00
2019-02-17T05:20:56.827Z,88.40
2019-02-17T05:23:28.431Z,97.40
2019-02-17T05:25:59.867Z,97.80
2019-02-17T05:28:31.115Z,81.60
2019-02-17T05:31:02.969Z,92.00
2019-02-17T05:33:34.392Z,95.80
2019-02-17T05:36:06.166Z,101.20
2019-02-17T05:38:38.589Z,96.60
2019-02-17T05:41:10.235Z,95.20
2019-02-17T05:43:41.753Z,101.60
2019-02-17T05:46:13.449Z,83.20
2019-02-17T05:48:44.757Z,87.40
2019-02-17T05:51:16.239Z,89.60
2019-02-17T05:53:47.313Z,87.40
2019-02-17T05:56:19.148Z,84.20
2019-02-17T05:58:50.650Z,91.00
2019-02-17T06:01:22.287Z,85.00
2019-02-17T06:03:53.884Z,80.80
2019-02-17T06:06:25.716Z,85.80
2019-02-17T06:08:57.148Z,87.80
2019-02-17T06:11:28.523Z,91.40
2019-02-17T06:14:00.096Z,88.60
2019-02-17T06:16:33.051Z,50.60
2019-02-17T06:19:04.592Z,83.60
2019-02-17T06:21:35.917Z,87.80
2019-02-17T06:24:07.426Z,81.40
2019-02-17T06:26:38.898Z,79.40
2019-02-17T06:29:10.527Z,83.60
2019-02-17T06:31:42.246Z,84.60
2019-02-17T06:34:13.815Z,82.00
2019-02-17T06:36:45.391Z,81.00
2019-02-17T06:39:17.008Z,86.40
2019-02-17T06:41:48.384Z,79.40
2019-02-17T06:44:20.078Z,82.40
2019-02-17T06:46:56.103Z,77.60
2019-02-17T06:49:27.569Z,79.00
2019-02-17T06:51:58.849Z,80.20
2019-02-17T06:54:31.022Z,74.00
2019-02-17T06:57:08.772Z,79.40
2019-02-17T06:59:45.908Z,89.00
2019-02-17T07:02:17.498Z,85.80
2019-02-17T07:05:22.933Z,84.00
2019-02-17T07:07:54.132Z,84.40
2019-02-17T07:10:26.630Z,76.00
2019-02-17T07:12:58.182Z,76.40
2019-02-17T07:15:29.956Z,82.20
2019-02-17T07:18:01.356Z,80.60
2019-02-17T07:20:32.863Z,67.80
2019-02-17T07:23:04.357Z,78.20
2019-02-17T07:25:36.019Z,77.40
2019-02-17T07:28:07.586Z,80.80
2019-02-17T07:30:39.063Z,71.80
2019-02-17T07:33:10.485Z,84.40
2019-02-17T07:35:42.129Z,78.40
2019-02-17T07:38:14.211Z,81.80
2019-02-17T07:40:45.629Z,83.20
2019-02-17T07:43:17.154Z,69.80
2019-02-17T07:45:49.125Z,82.60
2019-02-17T07:48:20.594Z,75.60
2019-02-17T07:50:52.350Z,73.80
2019-02-17T07:53:24.183Z,79.00
2019-02-17T07:55:55.928Z,83.80
2019-02-17T07:58:27.278Z,80.40
2019-02-17T08:00:58.441Z,76.60
2019-02-17T08:03:29.757Z,86.40
2019-02-17T08:06:00.864Z,74.60
2019-02-17T08:08:32.265Z,80.40
2019-02-17T08:11:04.463Z,75.20
2019-02-17T08:13:36.561Z,62.80
2019-02-17T08:16:07.805Z,84.20
2019-02-17T08:18:39.245Z,78.40
2019-02-17T08:21:10.722Z,82.40
2019-02-17T08:23:41.956Z,84.20
2019-02-17T08:26:13.355Z,84.20
2019-02-17T08:28:44.799Z,86.20
2019-02-17T08:31:16.397Z,83.40
2019-02-17T08:33:56.586Z,81.80
2019-02-17T08:36:27.935Z,87.80
2019-02-17T08:39:01.109Z,90.80
2019-02-17T08:41:34.093Z,83.00
2019-02-17T08:44:05.673Z,89.40
2019-02-17T08:46:37.241Z,84.80
2019-02-17T08:49:08.525Z,79.20
2019-02-17T08:51:40.679Z,90.80
2019-02-17T08:54:12.130Z,80.20
2019-02-17T08:56:43.444Z,75.20
2019-02-17T08:59:14.894Z,78.80
2019-02-17T09:01:46.560Z,85.20
2019-02-17T09:04:18.023Z,87.00
2019-02-17T09:06:49.616Z,80.20
2019-02-17T09:09:21.368Z,73.00
2019-02-17T09:11:55.280Z,82.00
2019-02-17T09:14:26.845Z,84.60
2019-02-17T09:16:58.173Z,82.20
2019-02-17T09:19:29.709Z,74.60
2019-02-17T09:22:01.203Z,80.80
2019-02-17T09:24:32.820Z,72.40
2019-02-17T09:27:04.360Z,80.60
2019-02-17T09:29:35.870Z,77.00
2019-02-17T09:32:15.933Z,76.20
2019-02-17T09:34:40.485Z,74.40
2019-02-17T09:37:11.869Z,77.20
2019-02-17T09:39:43.227Z,77.40
2019-02-17T09:42:14.748Z,77.60
2019-02-17T09:44:47.340Z,79.40
2019-02-17T09:47:20.286Z,71.20
2019-02-17T09:49:51.632Z,77.80
2019-02-17T09:52:23.074Z,65.00
2019-02-17T09:54:54.696Z,77.80
2019-02-17T09:57:26.056Z,78.80
2019-02-17T09:59:57.672Z,77.60
2019-02-17T10:02:28.992Z,78.60
2019-02-17T10:05:00.523Z,78.00
2019-02-17T10:07:31.838Z,76.00
2019-02-17T10:10:03.351Z,78.80
2019-02-17T10:12:34.788Z,77.80
2019-02-17T10:15:06.830Z,79.00
2019-02-17T10:17:38.179Z,75.20
2019-02-17T10:20:11.292Z,81.00
2019-02-17T10:22:43.081Z,77.00
2019-02-17T10:25:14.628Z,69.60
2019-02-17T10:27:46.332Z,79.00
2019-02-17T10:30:17.973Z,74.80
2019-02-17T10:32:52.076Z,76.00
2019-02-17T10:35:23.405Z,70.40
2019-02-17T10:37:54.791Z,76.60
2019-02-17T10:40:26.410Z,75.60
2019-02-17T10:42:57.948Z,76.00
2019-02-17T10:45:29.376Z,78.60
2019-02-17T10:48:01.193Z,64.60
2019-02-17T10:50:32.326Z,75.00
2019-02-17T10:53:03.673Z,74.40
2019-02-17T10:55:34.834Z,74.20
2019-02-17T10:58:06.413Z,76.20
2019-02-17T11:00:37.988Z,69.40
2019-02-17T11:03:10.905Z,71.60
2019-02-17T11:05:42.816Z,75.60
2019-02-17T11:08:14.145Z,72.80
2019-02-17T11:10:45.929Z,70.80
2019-02-17T11:13:17.748Z,75.60
2019-02-17T11:15:49.951Z,71.00
2019-02-17T11:18:21.853Z,69.00
2019-02-17T11:20:53.461Z,75.20
2019-02-17T11:23:24.806Z,67.60
2019-02-17T11:25:56.216Z,70.40
2019-02-17T11:28:28.352Z,73.00
2019-02-17T11:31:00.341Z,76.40
2019-02-17T11:33:34.031Z,68.60
2019-02-17T11:36:06.138Z,69.20
2019-02-17T11:38:38.833Z,77.40
2019-02-17T11:41:12.561Z,73.60
2019-02-17T11:43:43.845Z,73.20
2019-02-17T11:46:15.512Z,71.40
2019-02-17T11:48:46.685Z,68.60
2019-02-17T11:51:18.390Z,72.40
2019-02-17T11:53:49.775Z,67.20
2019-02-17T11:56:21.433Z,67.00
2019-02-17T11:58:53.340Z,69.60
2019-02-17T12:01:25.046Z,67.80
2019-02-17T12:03:56.992Z,63.20
2019-02-17T12:06:28.958Z,63.20
2019-02-17T12:09:00.587Z,66.80
2019-02-17T12:11:32.296Z,69.60
2019-02-17T12:14:04.003Z,68.60
2019-02-17T12:16:37.233Z,69.80
2019-02-17T12:19:08.974Z,69.80
2019-02-17T12:22:08.658Z,62.20
2019-02-17T12:24:45.413Z,73.80
2019-02-17T12:27:25.159Z,72.60
2019-02-17T12:30:02.758Z,76.00
2019-02-17T12:32:42.553Z,72.00
2019-02-17T12:35:14.605Z,67.40
2019-02-17T12:37:47.447Z,69.00
2019-02-17T12:40:19.114Z,75.00
2019-02-17T12:42:51.179Z,68.40
2019-02-17T12:45:23.112Z,80.60
2019-02-17T12:47:57.895Z,81.20
2019-02-17T12:50:28.964Z,77.20
2019-02-17T12:53:00.386Z,76.40
2019-02-17T12:55:31.718Z,75.80
2019-02-17T12:58:03.549Z,72.40
2019-02-17T13:00:35.203Z,78.20
2019-02-17T13:03:07.054Z,77.20
2019-02-17T13:05:41.099Z,78.20
2019-02-17T13:08:12.588Z,83.00
2019-02-17T13:10:44.128Z,76.40
2019-02-17T13:13:15.679Z,80.40
2019-02-17T13:15:47.128Z,78.20
2019-02-17T13:18:19.676Z,81.80
2019-02-17T13:20:51.260Z,80.20
2019-02-17T13:23:24.134Z,81.20
2019-02-17T13:25:56.977Z,84.40
2019-02-17T13:28:30.248Z,80.00
2019-02-17T13:31:06.139Z,83.20
2019-02-17T13:33:40.991Z,84.60
2019-02-17T13:36:12.283Z,85.00
2019-02-17T13:38:43.897Z,78.40
2019-02-17T13:41:16.922Z,77.40
2019-02-17T13:43:48.683Z,86.60
2019-02-17T13:46:20.643Z,86.20
2019-02-17T13:48:52.356Z,83.80
2019-02-17T13:51:24.123Z,91.40
2019-02-17T13:53:56.731Z,90.40
2019-02-17T13:56:28.209Z,92.40
2019-02-17T13:59:00.424Z,87.60
2019-02-17T14:01:35.166Z,91.40
2019-02-17T14:04:06.727Z,95.00
2019-02-17T14:06:41.131Z,101.20
2019-02-17T14:09:12.840Z,95.20
2019-02-17T14:11:44.513Z,117.40
2019-02-17T14:14:19.901Z,107.40
2019-02-17T14:16:53.365Z,109.40
2019-02-17T14:19:25.135Z,117.20
2019-02-17T14:21:56.951Z,127.60
2019-02-17T14:24:28.517Z,138.80
2019-02-17T14:27:00.036Z,139.80
2019-02-17T14:29:31.417Z,152.60
2019-02-17T14:32:02.740Z,129.40
2019-02-17T14:34:34.384Z,126.40
2019-02-17T14:37:06.679Z,126.80
2019-02-17T14:39:38.100Z,125.20
2019-02-17T14:42:09.620Z,110.80
2019-02-17T14:44:41.080Z,113.60
2019-02-17T14:47:12.449Z,118.40
2019-02-17T14:49:44.076Z,117.80
2019-02-17T14:52:15.574Z,118.40
2019-02-17T14:54:47.052Z,127.20
2019-02-17T14:57:18.340Z,117.00
2019-02-17T14:59:50.320Z,109.00
2019-02-17T15:02:21.791Z,121.60
2019-02-17T15:04:53.151Z,108.80
2019-02-17T15:07:24.729Z,123.80
2019-02-17T15:09:56.562Z,116.80
2019-02-17T15:12:27.970Z,118.60
2019-02-17T15:14:59.282Z,124.40
2019-02-17T15:17:30.885Z,122.40
2019-02-17T15:20:02.390Z,122.00
2019-02-17T15:22:35.007Z,133.00
2019-02-17T15:25:07.558Z,128.20
2019-02-17T15:27:39.249Z,122.40
2019-02-17T15:30:19.913Z,142.20
2019-02-17T15:32:51.804Z,136.20
2019-02-17T15:35:23.127Z,141.80
2019-02-17T15:37:54.326Z,132.40
2019-02-17T15:40:25.686Z,170.60
2019-02-17T15:42:57.262Z,154.40
2019-02-17T15:45:28.927Z,150.20
2019-02-17T15:48:00.355Z,169.20
2019-02-17T15:50:32.237Z,187.40
2019-02-17T15:53:03.643Z,175.80
2019-02-17T15:55:34.916Z,168.00
2019-02-17T15:58:06.485Z,159.80
2019-02-17T16:00:55.269Z,157.20
2019-02-17T16:03:26.610Z,173.00
2019-02-17T16:05:58.493Z,165.60
2019-02-17T16:08:29.864Z,171.80
2019-02-17T16:11:01.483Z,158.00
2019-02-17T16:13:33.087Z,161.60
2019-02-17T16:16:04.961Z,160.40
2019-02-17T16:18:36.238Z,167.20
2019-02-17T16:21:07.722Z,164.00
2019-02-17T16:23:39.092Z,155.20
2019-02-17T16:26:10.851Z,160.40
2019-02-17T16:28:42.730Z,162.40
2019-02-17T16:31:14.262Z,163.80
2019-02-17T16:33:45.608Z,168.40
2019-02-17T16:36:17.413Z,171.40
2019-02-17T16:38:48.915Z,166.00
2019-02-17T16:41:20.562Z,181.40
2019-02-17T16:43:52.197Z,202.00
2019-02-17T16:46:23.318Z,245.25
2019-02-17T16:48:54.885Z,211.00
2019-02-17T16:51:26.390Z,240.75
2019-02-17T16:53:59.720Z,214.50
2019-02-17T16:56:31.368Z,209.00
2019-02-17T16:59:03.017Z,228.75
2019-02-17T17:01:35.072Z,226.50
2019-02-17T17:04:06.627Z,211.75
2019-02-17T17:06:38.208Z,189.75
2019-02-17T17:09:10.099Z,187.75
2019-02-17T17:11:42.041Z,202.75
2019-02-17T17:14:13.606Z,214.25
2019-02-17T17:16:44.947Z,191.80
2019-02-17T17:19:16.499Z,192.00
2019-02-17T17:21:48.354Z,185.60
2019-02-17T17:24:21.815Z,182.40
2019-02-17T17:26:53.210Z,212.50
2019-02-17T17:29:25.087Z,206.25
2019-02-17T17:31:56.638Z,205.25
2019-02-17T17:34:28.206Z,198.75
2019-02-17T17:36:59.701Z,205.50
2019-02-17T17:39:32.819Z,261.75
2019-02-17T17:42:04.634Z,246.75
2019-02-17T17:44:36.521Z,325.75
2019-02-17T17:47:08.371Z,266.25
2019-02-17T17:49:40.014Z,239.00
2019-02-17T17:52:11.391Z,232.75
2019-02-17T17:54:42.835Z,232.75
2019-02-17T17:57:14.462Z,204.75
2019-02-17T17:59:46.555Z,209.50
2019-02-17T18:02:18.195Z,197.25
2019-02-17T18:04:49.746Z,212.25
2019-02-17T18:07:21.141Z,213.00
2019-02-17T18:09:52.471Z,209.75
2019-02-17T18:12:24.027Z,253.50
2019-02-17T18:14:55.795Z,258.25
2019-02-17T18:17:27.184Z,224.25
2019-02-17T18:19:59.164Z,227.75
2019-02-17T18:22:30.617Z,209.50
2019-02-17T18:25:02.164Z,215.25
2019-02-17T18:27:33.797Z,223.75
2019-02-17T18:30:06.571Z,194.00
2019-02-17T18:32:38.056Z,201.00
2019-02-17T18:35:19.258Z,191.20
2019-02-17T18:37:43.161Z,194.00
2019-02-17T18:40:14.633Z,181.80
2019-02-17T18:42:46.259Z,176.80
2019-02-17T18:45:17.794Z,168.40
2019-02-17T18:47:49.542Z,183.80
2019-02-17T18:50:21.047Z,180.80
2019-02-17T18:52:52.495Z,178.20
2019-02-17T18:55:24.196Z,188.20
2019-02-17T18:57:55.931Z,169.00
2019-02-17T19:00:28.172Z,179.80
2019-02-17T19:02:59.337Z,165.40
2019-02-17T19:05:32.624Z,191.00
2019-02-17T19:08:03.905Z,180.00
2019-02-17T19:10:35.550Z,189.60
2019-02-17T19:13:07.125Z,185.20
2019-02-17T19:15:38.812Z,189.40
2019-02-17T19:18:10.168Z,167.40
2019-02-17T19:20:41.269Z,172.40
2019-02-17T19:23:12.993Z,174.60
2019-02-17T19:25:44.343Z,157.80
2019-02-17T19:28:16.125Z,164.60
2019-02-17T19:30:47.664Z,186.60
2019-02-17T19:33:19.828Z,166.00
2019-02-17T19:35:51.033Z,158.00
2019-02-17T19:38:24.684Z,178.20
2019-02-17T19:40:55.989Z,165.60
2019-02-17T19:43:27.251Z,175.80
2019-02-17T19:45:58.484Z,172.00
2019-02-17T19:48:29.792Z,153.40
2019-02-17T19:51:01.255Z,171.40
2019-02-17T19:53:32.840Z,176.00
2019-02-17T19:56:04.156Z,163.20
2019-02-17T19:58:37.705Z,169.40
2019-02-17T20:01:09.143Z,177.00
2019-02-17T20:03:47.189Z,173.80
2019-02-17T20:06:21.098Z,172.60
2019-02-17T20:08:52.745Z,161.20
2019-02-17T20:11:24.152Z,165.20
2019-02-17T20:13:55.958Z,175.60
2019-02-17T20:16:27.617Z,172.40
2019-02-17T20:18:59.068Z,182.80
2019-02-17T20:21:30.286Z,174.20
2019-02-17T20:24:02.187Z,172.00
2019-02-17T20:26:33.815Z,175.80
2019-02-17T20:29:05.474Z,178.40
2019-02-17T20:31:36.808Z,179.40
2019-02-17T20:34:08.246Z,179.00
2019-02-17T20:36:39.475Z,186.20
2019-02-17T20:39:11.564Z,170.60
2019-02-17T20:41:43.215Z,189.00
2019-02-17T20:44:15.064Z,175.00
2019-02-17T20:46:46.707Z,185.00
2019-02-17T20:49:18.081Z,178.20
2019-02-17T20:51:50.350Z,187.40
2019-02-17T20:54:21.913Z,177.80
2019-02-17T20:56:53.574Z,174.00
2019-02-17T20:59:25.196Z,191.60
2019-02-17T21:01:56.661Z,172.60
2019-02-17T21:04:28.215Z,201.40
2019-02-17T21:07:00.510Z,202.00
2019-02-17T21:09:31.969Z,177.20
2019-02-17T21:12:03.258Z,182.80
2019-02-17T21:14:34.721Z,173.40
2019-02-17T21:17:06.046Z,171.00
2019-02-17T21:19:37.280Z,175.80
2019-02-17T21:22:08.485Z,191.20
2019-02-17T21:24:40.815Z,183.20
2019-02-17T21:27:12.086Z,176.80
2019-02-17T21:29:43.281Z,171.40
2019-02-17T21:32:14.712Z,170.20
2019-02-17T21:34:45.999Z,178.00
2019-02-17T21:37:17.343Z,170.20
2019-02-17T21:39:48.686Z,179.60
2019-02-17T21:42:20.300Z,171.80
2019-02-17T21:44:51.671Z,193.60
2019-02-17T21:47:23.156Z,179.20
2019-02-17T21:49:54.743Z,172.80
2019-02-17T21:52:26.482Z,186.20
2019-02-17T21:54:57.838Z,178.00
2019-02-17T21:57:29.237Z,179.00
2019-02-17T22:00:00.489Z,174.80
2019-02-17T22:02:33.493Z,175.40
2019-02-17T22:05:05.077Z,158.60
2019-02-17T22:07:36.863Z,161.00
2019-02-17T22:10:08.770Z,171.60
2019-02-17T22:12:40.336Z,176.60
2019-02-17T22:15:13.246Z,168.40
2019-02-17T22:17:44.446Z,168.60
2019-02-17T22:20:15.770Z,178.40
2019-02-17T22:22:46.934Z,169.60
2019-02-17T22:25:18.408Z,175.60
2019-02-17T22:27:50.131Z,169.80
2019-02-17T22:30:21.538Z,176.60
2019-02-17T22:32:52.713Z,182.60
2019-02-17T22:35:24.409Z,146.40
2019-02-17T22:37:55.658Z,177.40
2019-02-17T22:40:27.217Z,149.40
2019-02-17T22:42:58.617Z,160.40
2019-02-17T22:45:30.221Z,143.20
2019-02-17T22:48:01.403Z,188.20
2019-02-17T22:50:33.064Z,163.20
2019-02-17T22:53:04.793Z,170.40
2019-02-17T22:55:36.276Z,169.60
2019-02-17T22:58:07.442Z,175.00
2019-02-17T23:00:48.279Z,169.20
2019-02-17T23:03:21.703Z,180.00
2019-02-17T23:05:52.927Z,159.60
2019-02-17T23:08:24.402Z,175.60
2019-02-17T23:10:55.650Z,167.80
2019-02-17T23:13:27.071Z,169.60
2019-02-17T23:15:59.971Z,149.20
2019-02-17T23:18:31.227Z,175.20
2019-02-17T23:21:02.418Z,147.00
2019-02-17T23:23:33.994Z,165.60
2019-02-17T23:26:05.703Z,154.80
2019-02-17T23:28:37.137Z,172.80
2019-02-17T23:31:08.542Z,172.80
2019-02-17T23:33:39.980Z,182.60
2019-02-17T23:36:11.127Z,158.00
2019-02-17T23:38:42.952Z,163.60
2019-02-17T23:41:14.276Z,167.20
2019-02-17T23:43:45.623Z,158.00
2019-02-17T23:46:16.816Z,172.80
2019-02-17T23:48:48.274Z,148.00
2019-02-17T23:51:19.910Z,166.40
2019-02-17T23:53:52.117Z,157.40
2019-02-17T23:56:23.584Z,162.00
2019-02-17T23:58:54.922Z,143.40
